Time;durP1;ratioP1;P1;durP2;ratioP2;P2;SDS_P1;SDS_P2;PMS_P1;PMS_P2;Temp;Humidity;BMP_temperature;BMP_pressure;BME280_temperature;BME280_humidity;BME280_pressure;Samples;Min_cycle;Max_cycle;Signal;HPM_P1;HPM_P2
2023/08/10 00:00:53;;;;;;;7.22;2.35;;;;;;;14.97;100.00;101981.25;5093977;28;20551;-56
2023/08/10 00:03:18;;;;;;;5.18;2.40;;;;;;;14.73;100.00;101929.91;5095078;28;20115;-53
2023/08/10 00:05:44;;;;;;;5.15;2.63;;;;;;;15.14;100.00;102005.44;5094971;28;20405;-53
2023/08/10 00:08:09;;;;;;;6.40;2.10;;;;;;;15.21;100.00;102018.44;5076721;28;20439;-53
2023/08/10 00:10:34;;;;;;;3.30;2.38;;;;;;;15.20;100.00;102011.44;5095408;28;20040;-54
2023/08/10 00:13:00;;;;;;;7.95;2.88;;;;;;;15.08;100.00;101982.66;5076764;28;20028;-50
2023/08/10 00:15:25;;;;;;;4.47;2.60;;;;;;;15.20;100.00;102011.44;5094134;28;20024;-54
2023/08/10 00:17:50;;;;;;;5.30;2.55;;;;;;;15.02;100.00;101981.97;5094701;28;20046;-54
2023/08/10 00:20:17;;;;;;;6.15;2.20;;;;;;;14.70;100.00;101927.34;5075680;28;20039;-53
2023/08/10 00:22:42;;;;;;;6.15;2.80;;;;;;;15.13;100.00;102012.53;5094900;28;20040;-53
2023/08/10 00:25:08;;;;;;;4.38;2.28;;;;;;;15.06;100.00;101996.88;5093957;28;20505;-51
2023/08/10 00:27:35;;;;;;;5.53;2.65;;;;;;;14.62;100.00;101932.03;5094577;28;20467;-51
2023/08/10 00:30:00;;;;;;;6.75;2.60;;;;;;;15.00;100.00;101999.72;5094535;28;20071;-54
2023/08/10 00:32:26;;;;;;;3.85;2.17;;;;;;;14.85;100.00;101998.44;5093598;28;20056;-55
2023/08/10 00:34:52;;;;;;;6.85;2.65;;;;;;;14.83;100.00;102002.88;5076239;28;20514;-51
2023/08/10 00:37:17;;;;;;;5.38;2.60;;;;;;;14.00;100.00;101875.66;5094136;28;20032;-53
2023/08/10 00:39:43;;;;;;;5.72;2.50;;;;;;;14.23;100.00;101936.75;5093285;28;20376;-54
2023/08/10 00:42:08;;;;;;;4.90;2.78;;;;;;;14.48;100.00;101998.69;5094993;28;20039;-53
2023/08/10 00:44:34;;;;;;;3.72;2.55;;;;;;;14.45;100.00;102013.78;5094462;28;20402;-51
2023/08/10 00:46:59;;;;;;;6.95;3.00;;;;;;;14.26;100.00;101980.78;5094061;28;20039;-54
2023/08/10 00:49:25;;;;;;;4.82;2.55;;;;;;;14.32;100.00;102013.31;5094091;28;20032;-53
2023/08/10 00:51:51;;;;;;;3.13;2.47;;;;;;;14.21;100.00;101998.59;5094391;28;20376;-51
2023/08/10 00:54:16;;;;;;;6.85;3.08;;;;;;;14.22;100.00;102006.50;5094024;28;20101;-52
2023/08/10 00:56:41;;;;;;;5.18;2.70;;;;;;;14.03;100.00;101985.00;5075967;28;20036;-51
2023/08/10 00:59:07;;;;;;;6.03;3.20;;;;;;;14.13;100.00;102005.91;5094030;28;20028;-54
2023/08/10 01:01:33;;;;;;;5.95;2.60;;;;;;;13.71;100.00;101945.31;5094180;28;20044;-51
2023/08/10 01:03:58;;;;;;;6.82;2.92;;;;;;;13.90;100.00;101982.72;5074869;28;20028;-54
2023/08/10 01:06:40;;;;;;;6.35;3.20;;;;;;;14.05;100.00;102008.75;5093628;28;20038;-51
2023/08/10 01:09:28;;;;;;;4.43;3.00;;;;;;;14.04;100.00;102018.47;5075859;28;20062;-54
2023/08/10 01:12:25;;;;;;;4.60;2.58;;;;;;;14.03;100.00;102008.81;5076220;28;20383;-53
2023/08/10 01:15:08;;;;;;;3.55;2.70;;;;;;;14.00;100.00;102014.19;5055780;28;20493;-53
2023/08/10 01:17:39;;;;;;;7.32;2.58;;;;;;;13.90;100.00;101985.34;5075812;28;20035;-51
2023/08/10 01:20:05;;;;;;;5.18;2.97;;;;;;;13.85;100.00;101993.44;5093266;28;20107;-51
2023/08/10 01:22:49;;;;;;;5.88;2.95;;;;;;;14.00;100.00;102008.91;5093654;28;20509;-53
2023/08/10 01:25:15;;;;;;;4.25;3.28;;;;;;;13.58;100.00;101921.88;5075582;28;20352;-53
2023/08/10 01:27:41;;;;;;;9.07;2.60;;;;;;;13.91;100.00;101977.38;5075495;28;20322;-49
2023/08/10 01:30:08;;;;;;;5.72;2.72;;;;;;;13.88;100.00;101985.41;5075564;28;20479;-55
2023/08/10 01:32:33;;;;;;;5.35;2.75;;;;;;;13.96;100.00;101999.31;5075445;28;20043;-54
2023/08/10 01:35:05;;;;;;;3.05;2.75;;;;;;;13.64;100.00;101954.31;5093729;28;20048;-54
2023/08/10 01:37:31;;;;;;;5.25;2.65;;;;;;;13.50;100.00;101937.97;5092803;28;20562;-53
2023/08/10 01:39:56;;;;;;;5.63;3.03;;;;;;;13.87;100.00;102006.63;5093375;28;20107;-51
2023/08/10 01:42:23;;;;;;;6.35;3.55;;;;;;;13.83;100.00;101992.63;5093575;28;20043;-53
2023/08/10 01:44:49;;;;;;;5.82;3.08;;;;;;;13.78;100.00;101991.84;5093471;28;20039;-54
2023/08/10 01:47:27;;;;;;;6.47;3.15;;;;;;;13.64;100.00;101961.38;5093335;28;20032;-51
2023/08/10 01:49:56;;;;;;;3.00;2.80;;;;;;;13.16;100.00;101881.59;5093460;28;20103;-54
2023/08/10 01:52:25;;;;;;;6.07;2.97;;;;;;;13.70;100.00;101992.97;5074727;28;20431;-52
2023/08/10 01:54:51;;;;;;;8.18;3.38;;;;;;;13.20;100.00;101907.91;5074579;28;20040;-55
2023/08/10 01:57:17;;;;;;;6.32;3.22;;;;;;;13.52;100.00;101965.25;5058095;28;20046;-49
2023/08/10 01:59:42;;;;;;;4.35;3.13;;;;;;;13.28;100.00;101935.00;5074786;28;20028;-53
2023/08/10 02:02:08;;;;;;;5.20;3.20;;;;;;;13.58;100.00;101985.38;5074615;28;20077;-53
2023/08/10 02:04:33;;;;;;;5.20;3.15;;;;;;;13.13;100.00;101918.69;5092893;28;20040;-49
2023/08/10 02:06:58;;;;;;;5.55;3.40;;;;;;;13.52;100.00;101996.97;5092689;28;20076;-49
2023/08/10 02:09:23;;;;;;;7.68;3.38;;;;;;;13.28;100.00;101953.53;5091743;28;20081;-51
2023/08/10 02:11:49;;;;;;;4.95;3.25;;;;;;;13.46;100.00;101991.84;5093015;28;20028;-52
2023/08/10 02:14:14;;;;;;;7.43;3.67;;;;;;;13.01;100.00;101921.63;5091271;28;20040;-51
2023/08/10 02:16:40;;;;;;;6.57;3.97;;;;;;;13.45;100.00;101990.13;5092696;28;20043;-55
2023/08/10 02:19:05;;;;;;;6.15;3.25;;;;;;;13.42;100.00;101991.09;5092394;28;20032;-53
2023/08/10 02:21:30;;;;;;;4.45;3.40;;;;;;;12.98;100.00;101912.88;5092439;28;20063;-54
2023/08/10 02:23:56;;;;;;;5.68;3.63;;;;;;;13.29;100.00;101973.78;5092544;28;20043;-48
2023/08/10 02:26:21;;;;;;;4.80;3.60;;;;;;;12.97;100.00;101921.69;5092443;28;20426;-49
2023/08/10 02:28:46;;;;;;;4.13;3.20;;;;;;;13.18;100.00;101973.19;5092030;28;20040;-52
2023/08/10 02:31:12;;;;;;;4.13;3.25;;;;;;;12.87;100.00;101922.81;5091305;28;20403;-52
2023/08/10 02:33:37;;;;;;;7.15;3.15;;;;;;;13.28;100.00;101992.34;5091928;28;20052;-51
2023/08/10 02:36:03;;;;;;;7.95;3.30;;;;;;;13.26;100.00;101992.38;5092139;28;20032;-50
2023/08/10 02:38:28;;;;;;;7.10;4.10;;;;;;;12.87;100.00;101930.75;5092508;28;20092;-52
2023/08/10 02:40:53;;;;;;;5.32;3.70;;;;;;;13.01;100.00;101956.84;5092543;28;20517;-51
2023/08/10 02:43:19;;;;;;;3.75;3.38;;;;;;;12.43;100.00;101862.28;5090877;28;20067;-49
2023/08/10 02:45:44;;;;;;;6.53;3.80;;;;;;;12.77;100.00;101931.00;5092265;28;20036;-55
2023/08/10 02:48:10;;;;;;;5.60;3.60;;;;;;;12.86;100.00;101947.53;5092594;28;20451;-53
2023/08/10 02:50:35;;;;;;;5.80;3.55;;;;;;;12.99;100.00;101967.44;5091889;28;20122;-55
2023/08/10 02:53:00;;;;;;;6.97;3.60;;;;;;;12.73;100.00;101918.75;5074121;28;20371;-54
2023/08/10 02:55:26;;;;;;;7.55;3.92;;;;;;;13.21;100.00;102001.31;5074103;28;20051;-53
2023/08/10 02:57:51;;;;;;;5.03;3.28;;;;;;;13.10;100.00;101992.78;5073665;28;20181;-51
2023/08/10 03:00:17;;;;;;;4.93;3.40;;;;;;;12.70;100.00;101925.00;5091468;28;20036;-53
2023/08/10 03:02:43;;;;;;;5.45;3.25;;;;;;;12.76;100.00;101942.47;5092071;28;20128;-51
2023/08/10 03:05:08;;;;;;;6.25;4.10;;;;;;;12.69;100.00;101928.56;5074016;28;20455;-52
2023/08/10 03:07:34;;;;;;;6.30;4.65;;;;;;;13.12;100.00;102004.19;5091927;28;20048;-54
2023/08/10 03:09:59;;;;;;;9.35;4.82;;;;;;;12.69;100.00;101939.13;5092224;28;20039;-52
2023/08/10 03:12:24;;;;;;;7.05;4.85;;;;;;;12.97;100.00;102002.75;5091898;28;20077;-51
2023/08/10 03:14:50;;;;;;;6.35;4.55;;;;;;;12.72;100.00;101935.53;5091790;28;20034;-52
2023/08/10 03:17:15;;;;;;;6.13;4.07;;;;;;;12.69;100.00;101909.19;5091627;28;20039;-53
2023/08/10 03:19:44;;;;;;;5.53;4.03;;;;;;;12.74;100.00;101918.75;5091221;28;20046;-52
2023/08/10 03:22:09;;;;;;;8.05;4.90;;;;;;;12.80;100.00;101926.53;5073781;28;20382;-51
2023/08/10 03:24:36;;;;;;;7.45;5.00;;;;;;;13.07;100.00;101974.31;5091820;28;20123;-51
2023/08/10 03:27:01;;;;;;;6.55;4.70;;;;;;;13.20;100.00;102011.03;5073580;28;20089;-51
2023/08/10 03:29:27;;;;;;;5.65;4.63;;;;;;;12.75;100.00;101923.13;5073613;28;20437;-52
2023/08/10 03:31:52;;;;;;;4.90;4.43;;;;;;;12.89;100.00;101951.84;5091777;28;20040;-52
2023/08/10 03:34:17;;;;;;;7.63;4.85;;;;;;;13.08;100.00;101995.47;5072610;28;20117;-48
2023/08/10 03:36:43;;;;;;;5.97;4.55;;;;;;;13.01;100.00;101985.91;5091273;28;20033;-50
2023/08/10 03:39:08;;;;;;;6.57;4.82;;;;;;;13.03;100.00;101997.31;5091524;28;20032;-51
2023/08/10 03:41:33;;;;;;;5.63;4.72;;;;;;;12.63;100.00;101919.91;5091832;28;20099;-51
2023/08/10 03:43:59;;;;;;;8.10;5.13;;;;;;;12.60;100.00;101925.25;5056786;28;20604;-50
2023/08/10 03:46:24;;;;;;;6.25;5.10;;;;;;;12.99;100.00;101993.00;5091664;28;20040;-55
2023/08/10 03:48:49;;;;;;;7.13;5.03;;;;;;;12.66;100.00;101922.47;5091276;28;20036;-54
2023/08/10 03:51:15;;;;;;;5.03;4.53;;;;;;;12.72;100.00;101925.84;5090794;28;20050;-55
2023/08/10 03:53:40;;;;;;;5.15;4.65;;;;;;;13.19;100.00;101989.94;5091796;28;20126;-51
2023/08/10 03:56:06;;;;;;;7.13;5.07;;;;;;;13.16;100.00;101975.00;5095606;28;20036;-51
2023/08/10 03:58:32;;;;;;;8.10;5.22;;;;;;;13.27;100.00;101985.31;5077422;28;20123;-52
2023/08/10 04:00:57;;;;;;;8.32;5.25;;;;;;;13.32;100.00;101988.69;5093744;28;20115;-54
2023/08/10 04:03:22;;;;;;;6.95;4.40;;;;;;;13.12;100.00;101948.66;5095232;28;20094;-52
2023/08/10 04:05:48;;;;;;;5.40;4.53;;;;;;;13.46;100.00;101995.38;5094436;28;20032;-52
2023/08/10 04:08:13;;;;;;;5.30;4.65;;;;;;;13.51;100.00;101997.91;5095171;28;20554;-52
2023/08/10 04:10:39;;;;;;;6.20;4.15;;;;;;;13.58;100.00;101996.81;5095200;28;20117;-53
2023/08/10 04:13:05;;;;;;;7.57;4.93;;;;;;;13.20;100.00;101930.84;5095218;28;20032;-54
2023/08/10 04:15:30;;;;;;;4.78;4.30;;;;;;;13.67;100.00;102004.50;5095026;28;20475;-53
2023/08/10 04:17:56;;;;;;;6.45;4.25;;;;;;;13.76;100.00;102006.91;5095003;28;20028;-50
2023/08/10 04:20:21;;;;;;;5.13;4.40;;;;;;;13.77;100.00;101995.44;5094909;28;20043;-48
2023/08/10 04:22:47;;;;;;;6.00;3.90;;;;;;;13.87;100.00;102015.44;5076592;28;20084;-55
2023/08/10 04:25:12;;;;;;;6.10;4.13;;;;;;;13.56;100.00;101937.81;5094833;28;20078;-51
2023/08/10 04:27:37;;;;;;;4.63;4.15;;;;;;;13.98;100.00;102002.75;5094836;28;20031;-53
2023/08/10 04:30:06;;;;;;;8.07;4.70;;;;;;;13.92;100.00;101984.41;5094850;28;20498;-56
2023/08/10 04:32:32;;;;;;;5.72;5.13;;;;;;;14.05;100.00;101993.75;5076512;28;20475;-51
2023/08/10 04:34:57;;;;;;;10.68;5.05;;;;;;;13.76;100.00;101938.13;5094815;28;20044;-50
2023/08/10 04:37:23;;;;;;;7.10;4.88;;;;;;;14.21;100.00;102003.91;5094347;28;20558;-53
2023/08/10 04:39:48;;;;;;;6.45;4.88;;;;;;;14.31;100.00;101994.75;5076241;28;20044;-50
2023/08/10 04:42:14;;;;;;;11.73;5.32;;;;;;;13.95;100.00;101912.84;5094892;28;20028;-51
2023/08/10 04:44:39;;;;;;;7.85;5.10;;;;;;;14.46;100.00;101986.41;5094270;28;20115;-55
2023/08/10 04:47:05;;;;;;;7.43;4.57;;;;;;;14.53;100.00;101987.97;5094085;28;20482;-55
2023/08/10 04:49:31;;;;;;;4.75;4.30;;;;;;;14.20;100.00;101920.06;5094293;28;20028;-52
2023/08/10 04:51:56;;;;;;;8.45;4.80;;;;;;;14.62;100.00;101980.56;5094868;28;20519;-54
2023/08/10 04:54:22;;;;;;;8.60;4.90;;;;;;;14.32;100.00;101920.59;5094192;28;20130;-54
2023/08/10 04:56:48;;;;;;;4.18;3.55;;;;;;;14.80;100.00;101987.09;5076010;28;20486;-53
2023/08/10 04:59:13;;;;;;;5.10;4.43;;;;;;;14.85;100.00;101993.13;5094175;28;20025;-53
2023/08/10 05:01:39;;;;;;;7.18;4.35;;;;;;;14.88;100.00;101986.88;5076066;28;20043;-54
2023/08/10 05:04:05;;;;;;;7.82;4.38;;;;;;;14.52;100.00;101914.69;5093326;28;20047;-51
2023/08/10 05:06:31;;;;;;;6.72;4.63;;;;;;;14.98;100.00;101989.16;5093740;28;20028;-51
2023/08/10 05:08:56;;;;;;;7.55;4.63;;;;;;;14.92;100.00;101973.44;5094179;28;20084;-52
2023/08/10 05:11:23;;;;;;;5.25;4.32;;;;;;;14.96;100.00;101972.44;5093927;28;20032;-54
2023/08/10 05:13:48;;;;;;;8.40;4.38;;;;;;;15.07;100.00;101980.03;5093752;28;20035;-50
2023/08/10 05:16:14;;;;;;;7.75;4.70;;;;;;;14.84;100.00;101932.19;5093626;28;20403;-52
2023/08/10 05:18:40;;;;;;;5.65;4.43;;;;;;;14.96;100.00;101948.56;5093898;28;20040;-52
2023/08/10 05:21:06;;;;;;;6.50;4.28;;;;;;;15.13;100.00;101975.41;5082848;28;20039;-53
2023/08/10 05:23:31;;;;;;;6.55;4.05;;;;;;;14.83;100.00;101910.13;5094103;28;20223;-51
2023/08/10 05:25:56;;;;;;;5.90;3.53;;;;;;;15.25;100.00;101981.22;5093475;28;20040;-53
2023/08/10 05:28:22;;;;;;;7.18;4.68;;;;;;;15.30;100.00;101981.91;5093804;28;20537;-51
2023/08/10 05:30:47;;;;;;;6.05;4.72;;;;;;;15.32;100.00;101980.09;5093464;28;20039;-50
2023/08/10 05:33:12;;;;;;;5.38;4.18;;;;;;;15.23;100.00;101958.25;5093664;28;20044;-51
2023/08/10 05:35:38;;;;;;;7.55;4.05;;;;;;;15.39;100.00;101982.47;5093101;28;20075;-52
2023/08/10 05:38:03;;;;;;;5.85;3.72;;;;;;;15.41;100.00;101977.13;5092976;28;20032;-51
2023/08/10 05:40:29;;;;;;;7.38;4.28;;;;;;;15.53;100.00;101988.19;5093599;28;20032;-53
2023/08/10 05:42:55;;;;;;;5.22;3.97;;;;;;;15.15;100.00;101917.00;5093324;28;20384;-56
2023/08/10 05:45:21;;;;;;;6.65;4.20;;;;;;;15.03;100.00;101897.06;5074741;28;20467;-52
2023/08/10 05:47:49;;;;;;;4.30;3.55;;;;;;;15.67;100.00;101993.88;5093157;28;20066;-50
2023/08/10 05:50:14;;;;;;;8.13;3.90;;;;;;;15.35;100.00;101927.81;5093337;28;20115;-53
2023/08/10 05:52:40;;;;;;;8.15;4.70;;;;;;;15.70;100.00;101984.97;5092369;28;20115;-51
2023/08/10 05:55:05;;;;;;;6.55;4.35;;;;;;;15.63;100.00;101967.53;5074614;28;20028;-53
2023/08/10 05:57:31;;;;;;;5.47;3.95;;;;;;;15.40;100.00;101919.66;5092801;28;20044;-52
2023/08/10 05:59:56;;;;;;;5.78;4.40;;;;;;;15.67;100.00;101958.53;5092921;28;20059;-49
2023/08/10 06:02:22;;;;;;;6.90;4.22;;;;;;;15.94;100.00;101993.81;5092777;28;20114;-51
2023/08/10 06:04:49;;;;;;;7.68;4.18;;;;;;;15.93;100.00;101979.72;5092815;28;20106;-52
2023/08/10 06:07:14;;;;;;;5.72;3.75;;;;;;;15.99;100.00;101984.81;5092951;28;20028;-54
2023/08/10 06:09:40;;;;;;;6.05;3.50;;;;;;;15.64;100.00;101919.69;5074774;28;20039;-54
2023/08/10 06:12:06;;;;;;;7.45;3.67;;;;;;;16.09;100.00;101982.66;5074020;28;20177;-57
2023/08/10 06:14:31;;;;;;;6.72;3.80;;;;;;;16.10;100.00;101981.72;5074326;28;20032;-53
2023/08/10 06:16:57;;;;;;;8.02;4.13;;;;;;;16.23;100.00;101990.97;5091587;28;20039;-52
2023/08/10 06:19:22;;;;;;;8.70;4.00;;;;;;;15.90;100.00;101928.50;5092651;28;20047;-49
2023/08/10 06:21:48;;;;;;;6.22;4.13;;;;;;;16.39;100.00;101997.44;5092721;28;20028;-51
2023/08/10 06:24:16;;;;;;;5.88;4.03;;;;;;;16.48;100.00;101996.22;5092281;28;20024;-53
2023/08/10 06:26:41;;;;;;;8.07;4.70;;;;;;;16.18;100.00;101940.69;5091761;28;20040;-54
2023/08/10 06:29:08;;;;;;;4.60;3.97;;;;;;;16.25;100.00;101942.19;5057883;28;20044;-55
2023/08/10 06:31:34;;;;;;;7.07;3.75;;;;;;;16.29;100.00;101938.47;5074164;28;20533;-51
2023/08/10 06:33:59;;;;;;;6.15;3.72;;;;;;;16.34;100.00;101940.97;5092157;28;20109;-55
2023/08/10 06:36:26;;;;;;;6.30;4.53;;;;;;;16.84;100.00;102019.59;5092405;28;20110;-54
2023/08/10 06:38:52;;;;;;;5.43;3.78;;;;;;;16.90;100.00;102007.84;5092556;28;20069;-54
2023/08/10 06:41:17;;;;;;;7.13;4.57;;;;;;;16.93;100.00;102014.88;5092263;28;20395;-54
2023/08/10 06:43:43;;;;;;;5.20;3.53;;;;;;;16.73;100.00;101968.66;5091453;28;20082;-54
2023/08/10 06:46:08;;;;;;;6.78;4.20;;;;;;;17.12;100.00;102027.38;5092068;28;20043;-53
2023/08/10 06:48:33;;;;;;;4.30;3.88;;;;;;;17.21;100.00;102018.13;5092354;28;20035;-51
2023/08/10 06:50:59;;;;;;;7.75;3.92;;;;;;;17.34;100.00;102028.19;5092280;28;20127;-52
2023/08/10 06:53:24;;;;;;;5.95;3.97;;;;;;;17.42;100.00;102028.72;5091870;28;20180;-52
2023/08/10 06:55:52;;;;;;;6.70;4.55;;;;;;;17.49;100.00;102007.19;5091942;28;20494;-53
2023/08/10 06:58:17;;;;;;;6.82;4.65;;;;;;;17.55;100.00;102009.63;5092066;28;20479;-55
2023/08/10 07:00:44;;;;;;;9.18;4.65;;;;;;;17.68;100.00;102019.69;5091200;28;20085;-52
2023/08/10 07:03:09;;;;;;;7.00;4.60;;;;;;;17.64;100.00;102001.25;5091725;28;20383;-50
2023/08/10 07:05:38;;;;;;;7.30;3.80;;;;;;;17.60;100.00;101965.88;5073950;28;20039;-50
2023/08/10 07:08:05;;;;;;;5.97;4.65;;;;;;;17.31;100.00;101897.91;5092181;28;20035;-50
2023/08/10 07:10:30;;;;;;;4.97;4.53;;;;;;;18.10;100.00;102027.59;5073966;28;20038;-52
2023/08/10 07:12:56;;;;;;;6.30;4.47;;;;;;;17.81;100.00;101966.75;5090553;28;20040;-51
2023/08/10 07:15:21;;;;;;;5.57;3.90;;;;;;;17.86;100.00;101967.44;5090862;28;20032;-55
2023/08/10 07:17:47;;;;;;;4.53;4.13;;;;;;;17.89;100.00;101969.97;5091954;28;20036;-52
2023/08/10 07:20:13;;;;;;;6.50;4.25;;;;;;;18.01;100.00;101976.53;5073796;28;20040;-51
2023/08/10 07:22:38;;;;;;;6.75;4.18;;;;;;;18.29;100.00;102036.50;5091860;28;20074;-49
2023/08/10 07:25:05;;;;;;;5.75;3.67;;;;;;;18.31;100.00;102023.97;5092120;28;20040;-52
2023/08/10 07:27:35;;;;;;;5.07;4.30;;;;;;;18.48;100.00;102036.50;5092177;28;20091;-55
2023/08/10 07:30:01;;;;;;;8.27;4.32;;;;;;;18.23;100.00;101983.47;5095707;28;20488;-53
2023/08/10 07:32:27;;;;;;;5.90;4.50;;;;;;;18.29;100.00;101977.00;5077203;28;20360;-55
2023/08/10 07:34:52;;;;;;;5.45;4.30;;;;;;;18.46;100.00;102003.72;5077457;28;20106;-52
2023/08/10 07:37:17;;;;;;;7.90;4.40;;;;;;;18.85;100.00;102060.56;5095686;28;20040;-54
2023/08/10 07:39:43;;;;;;;7.13;5.00;;;;;;;18.76;100.00;102030.78;5095735;28;20077;-54
2023/08/10 07:42:08;;;;;;;5.70;4.30;;;;;;;19.05;100.00;102059.59;5095475;28;20032;-51
2023/08/10 07:44:34;;;;;;;6.78;4.47;;;;;;;19.08;100.00;102051.44;5077453;28;20123;-55
2023/08/10 07:46:59;;;;;;;9.35;4.57;;;;;;;19.17;100.00;102061.69;5077558;28;20036;-53
2023/08/10 07:49:24;;;;;;;5.32;4.43;;;;;;;19.26;100.00;102050.56;5092521;28;20028;-55
2023/08/10 07:51:50;;;;;;;7.90;4.22;;;;;;;19.48;100.00;102053.91;5095213;28;20028;-49
2023/08/10 07:54:15;;;;;;;6.63;4.90;;;;;;;19.58;100.00;102057.00;5095450;28;20127;-53
2023/08/10 07:56:41;;;;;;;6.53;4.35;;;;;;;19.29;100.00;101996.16;5095583;28;20036;-53
2023/08/10 07:59:06;;;;;;;6.40;4.68;;;;;;;19.45;100.00;101991.78;5077077;28;20403;-53
2023/08/10 08:01:32;;;;;;;6.22;4.22;;;;;;;19.51;100.00;102000.34;5095272;28;20047;-49
2023/08/10 08:03:57;;;;;;;7.68;4.30;;;;;;;19.89;100.00;102059.81;5094831;28;20044;-53
2023/08/10 08:06:23;;;;;;;6.88;4.50;;;;;;;19.65;100.00;102008.50;5095404;28;20437;-54
2023/08/10 08:08:48;;;;;;;6.97;4.00;;;;;;;20.18;100.00;102074.31;5095401;28;20497;-55
2023/08/10 08:11:14;;;;;;;9.07;3.90;;;;;;;20.23;100.00;102074.09;5094745;28;20085;-53
2023/08/10 08:13:39;;;;;;;9.02;4.53;;;;;;;19.94;100.00;102006.13;5095095;28;20036;-54
2023/08/10 08:16:04;;;;;;;6.60;4.28;;;;;;;19.98;100.00;102005.03;5077299;28;20036;-55
2023/08/10 08:18:40;;;;;;;6.10;3.47;;;;;;;19.97;100.00;102011.31;5076883;28;20036;-55
2023/08/10 08:21:06;;;;;;;6.38;3.22;;;;;;;20.36;100.00;102078.72;5094035;28;20028;-53
2023/08/10 08:23:33;;;;;;;3.75;2.72;;;;;;;20.36;100.00;102072.53;5076798;28;20032;-52
2023/08/10 08:25:59;;;;;;;5.20;2.97;;;;;;;20.33;100.00;102067.34;5094795;28;20470;-51
2023/08/10 08:28:24;;;;;;;3.50;2.63;;;;;;;20.40;100.00;102074.94;5076673;28;20067;-55
2023/08/10 08:30:50;;;;;;;4.20;2.33;;;;;;;20.47;100.00;102059.44;5094626;28;20115;-49
2023/08/10 08:33:16;;;;;;;3.47;1.90;;;;;;;20.26;100.00;102015.97;5094773;28;20068;-53
2023/08/10 08:35:44;;;;;;;3.80;2.20;;;;;;;20.27;100.00;102022.19;5093912;28;20048;-53
2023/08/10 08:38:09;;;;;;;2.92;1.73;;;;;;;20.56;100.00;102073.16;5094302;28;20463;-52
2023/08/10 08:40:35;;;;;;;2.38;1.50;;;;;;;20.77;100.00;102095.22;5093767;28;20054;-54
2023/08/10 08:43:03;;;;;;;4.25;1.88;;;;;;;20.48;100.00;102043.31;5094764;28;20147;-52
2023/08/10 08:45:28;;;;;;;1.40;1.30;;;;;;;20.70;100.00;102100.03;5076185;28;20028;-48
2023/08/10 08:47:54;;;;;;;2.10;1.50;;;;;;;20.57;100.00;102079.41;5094390;28;20075;-51
2023/08/10 08:50:19;;;;;;;2.67;1.35;;;;;;;20.24;100.00;102017.84;5093183;28;20455;-54
2023/08/10 08:52:45;;;;;;;2.03;1.58;;;;;;;20.62;100.00;102086.22;5075620;28;20131;-54
2023/08/10 08:55:13;;;;;;;2.15;1.70;;;;;;;20.48;100.00;102035.28;5076092;28;20053;-51
2023/08/10 08:57:39;;;;;;;1.90;1.63;;;;;;;20.57;100.00;102021.41;5094393;28;20043;-53
2023/08/10 09:00:06;;;;;;;4.28;1.50;;;;;;;20.82;100.00;102031.59;5094123;28;20032;-51
2023/08/10 09:02:32;;;;;;;2.50;1.60;;;;;;;21.12;100.00;102067.38;5094276;28;20032;-50
2023/08/10 09:04:59;;;;;;;5.22;2.25;;;;;;;21.35;100.00;102068.72;5094210;28;20400;-55
2023/08/10 09:07:26;;;;;;;4.40;2.20;;;;;;;21.51;100.00;102082.09;5093335;28;20486;-56
2023/08/10 09:09:52;;;;;;;3.10;1.77;;;;;;;21.61;100.00;102075.25;5075919;28;20039;-54
2023/08/10 09:12:32;;;;;;;5.15;3.38;;;;;;;21.67;100.00;102077.56;5076230;28;20119;-50
2023/08/10 09:15:10;;;;;;;3.75;1.90;;;;;;;21.76;100.00;102071.66;5094011;28;20040;-54
2023/08/10 09:17:48;;;;;;;3.50;2.00;;;;;;;21.41;100.00;102012.13;5075447;28;20129;-53
2023/08/10 09:20:27;;;;;;;4.35;2.25;;;;;;;21.73;100.00;102074.53;5093730;28;20036;-56
2023/08/10 09:22:54;;;;;;;2.80;2.45;;;;;;;21.54;100.00;102037.22;5093994;28;20146;-58
2023/08/10 09:25:21;;;;;;;4.13;2.30;;;;;;;21.37;100.00;102013.25;5092973;28;20039;-53
2023/08/10 09:27:47;;;;;;;4.07;2.28;;;;;;;21.74;100.00;102074.44;5075771;28;20142;-51
2023/08/10 09:30:13;;;;;;;3.83;2.00;;;;;;;21.89;100.00;102083.38;5093449;28;20499;-55
2023/08/10 09:32:39;;;;;;;2.60;2.15;;;;;;;21.70;100.00;102015.75;5075415;28;20032;-50
2023/08/10 09:35:05;;;;;;;3.47;2.00;;;;;;;21.70;100.00;101997.84;5093482;28;20048;-52
2023/08/10 09:37:31;;;;;;;5.28;1.77;;;;;;;21.88;100.00;102030.75;5075141;28;20415;-56
2023/08/10 09:39:59;;;;;;;2.78;2.10;;;;;;;22.21;100.00;102098.41;5074885;28;20032;-57
2023/08/10 09:42:24;;;;;;;2.78;1.88;;;;;;;22.26;100.00;102085.59;5093393;28;20036;-52
2023/08/10 09:44:51;;;;;;;3.88;1.83;;;;;;;22.17;100.00;102082.59;5093314;28;20403;-55
2023/08/10 09:47:18;;;;;;;4.85;2.42;;;;;;;22.07;100.00;102109.09;5075130;28;20498;-55
2023/08/10 09:49:57;;;;;;;2.40;1.92;;;;;;;21.70;100.00;102035.38;5075155;28;20467;-54
2023/08/10 09:52:24;;;;;;;3.03;1.80;;;;;;;21.72;100.00;102035.25;5057649;28;20044;-54
2023/08/10 09:54:50;;;;;;;4.25;2.03;;;;;;;21.99;100.00;102067.63;5075099;28;20040;-54
2023/08/10 09:57:17;;;;;;;1.80;1.67;;;;;;;21.74;100.00;102026.19;5092681;28;20028;-54
2023/08/10 09:59:42;;;;;;;6.30;2.40;;;;;;;21.88;100.00;102086.19;5058693;28;20399;-52
2023/08/10 10:02:09;;;;;;;2.55;1.83;;;;;;;21.68;100.00;102036.41;5075108;28;20035;-57
2023/08/10 10:04:35;;;;;;;5.05;2.08;;;;;;;22.15;100.00;102093.44;5092911;28;20047;-55
2023/08/10 10:07:01;;;;;;;4.90;2.08;;;;;;;22.21;100.00;102094.88;5093078;28;20028;-54
2023/08/10 10:09:28;;;;;;;2.75;1.83;;;;;;;21.87;100.00;102039.69;5075105;28;20086;-50
2023/08/10 10:11:54;;;;;;;4.38;2.28;;;;;;;22.32;100.00;102089.72;5074542;28;20070;-55
2023/08/10 10:14:20;;;;;;;5.90;2.20;;;;;;;22.43;100.00;102095.28;5091781;28;20116;-51
2023/08/10 10:16:46;;;;;;;2.55;1.70;;;;;;;22.20;100.00;102005.50;5058491;28;20411;-53
2023/08/10 10:19:12;;;;;;;3.40;2.10;;;;;;;22.47;100.00;102016.31;5057892;28;20040;-55
2023/08/10 10:21:37;;;;;;;3.05;1.90;;;;;;;22.61;100.00;102013.63;5092849;28;20111;-54
2023/08/10 10:24:03;;;;;;;4.45;1.90;;;;;;;23.17;100.00;102093.22;5074629;28;20433;-53
2023/08/10 10:26:29;;;;;;;4.45;1.67;;;;;;;22.81;100.00;102018.59;5074393;28;20429;-56
2023/08/10 10:29:15;;;;;;;2.63;1.60;;;;;;;23.31;100.00;102090.47;5092439;28;20036;-54
2023/08/10 10:31:40;;;;;;;3.88;2.03;;;;;;;23.39;100.00;102090.88;5092152;28;20028;-50
2023/08/10 10:34:10;;;;;;;2.47;1.83;;;;;;;23.33;100.00;102059.00;5074358;28;20073;-52
2023/08/10 10:36:38;;;;;;;7.78;1.83;;;;;;;23.39;100.00;102020.13;5092774;28;20031;-53
2023/08/10 10:39:11;;;;;;;5.43;2.00;;;;;;;23.40;100.00;102038.00;5092496;28;20085;-55
2023/08/10 10:41:39;;;;;;;6.93;2.25;;;;;;;23.43;100.00;102027.91;5092218;28;20035;-55
2023/08/10 10:44:05;;;;;;;5.95;1.90;;;;;;;23.92;100.00;102098.00;5074300;28;20388;-57
2023/08/10 10:46:31;;;;;;;4.25;1.83;;;;;;;24.20;100.00;102106.91;5073573;28;20039;-55
2023/08/10 10:48:56;;;;;;;2.97;1.80;;;;;;;24.27;100.00;102089.34;5092245;28;20031;-53
2023/08/10 10:51:22;;;;;;;2.70;1.92;;;;;;;24.26;100.00;102045.44;5092157;28;20036;-53
2023/08/10 10:53:48;;;;;;;3.40;2.30;;;;;;;24.75;100.00;102093.94;5074116;28;20040;-53
2023/08/10 10:56:13;;;;;;;4.50;2.05;;;;;;;24.92;100.00;102099.03;5091950;28;20418;-53
2023/08/10 10:58:40;;;;;;;2.00;1.73;;;;;;;25.06;100.00;102092.63;5092364;28;20082;-54
2023/08/10 11:01:05;;;;;;;3.78;1.95;;;;;;;24.43;100.00;101979.66;5092060;28;20119;-54
2023/08/10 11:03:31;;;;;;;2.47;1.80;;;;;;;25.30;100.00;102084.56;5091841;28;20480;-54
2023/08/10 11:05:56;;;;;;;3.80;2.10;;;;;;;25.62;100.00;102069.56;5091184;28;20526;-55
2023/08/10 11:08:22;;;;;;;2.63;1.65;;;;;;;25.81;100.00;102048.28;5092345;28;20036;-52
2023/08/10 11:10:50;;;;;;;3.33;1.85;;;;;;;25.83;100.00;102040.09;5073596;28;20036;-52
2023/08/10 11:13:16;;;;;;;2.15;1.63;;;;;;;25.78;100.00;102034.16;5091916;28;20451;-55